createdAt,value
2019-04-26T00:01:58.318Z,15.50
2019-04-26T00:04:26.832Z,15.50
2019-04-26T00:06:55.642Z,15.50
2019-04-26T00:09:25.945Z,15.49
2019-04-26T00:11:58.836Z,15.49
2019-04-26T00:14:44.948Z,15.51
2019-04-26T00:17:29.495Z,15.54
2019-04-26T00:19:58.162Z,15.57
2019-04-26T00:22:26.639Z,15.58
2019-04-26T00:24:55.121Z,15.62
2019-04-26T00:27:23.592Z,15.63
2019-04-26T00:29:52.161Z,15.64
2019-04-26T00:32:21.382Z,15.63
2019-04-26T00:34:49.650Z,15.65
2019-04-26T00:37:18.006Z,15.64
2019-04-26T00:39:46.546Z,15.63
2019-04-26T00:42:15.004Z,15.61
2019-04-26T00:44:43.484Z,15.59
2019-04-26T00:47:13.658Z,15.59
2019-04-26T00:49:43.752Z,15.59
2019-04-26T00:52:12.985Z,15.57
2019-04-26T00:54:42.029Z,15.57
2019-04-26T00:57:10.229Z,15.53
2019-04-26T00:59:38.793Z,15.49
2019-04-26T01:02:11.594Z,15.51
2019-04-26T01:04:40.041Z,15.53
2019-04-26T01:07:08.318Z,15.50
2019-04-26T01:09:36.542Z,15.48
2019-04-26T01:12:04.973Z,15.45
2019-04-26T01:14:33.470Z,15.46
2019-04-26T01:17:01.922Z,15.45
2019-04-26T01:19:30.412Z,15.47
2019-04-26T01:22:00.700Z,15.45
2019-04-26T01:24:28.919Z,15.45
2019-04-26T01:26:57.398Z,15.41
2019-04-26T01:29:26.025Z,15.39
2019-04-26T01:31:57.626Z,15.40
2019-04-26T01:34:26.176Z,15.37
2019-04-26T01:36:54.412Z,15.37
2019-04-26T01:39:23.940Z,15.35
2019-04-26T01:41:59.445Z,15.37
2019-04-26T01:44:30.830Z,15.33
2019-04-26T01:46:59.097Z,15.24
2019-04-26T01:49:28.220Z,15.21
2019-04-26T01:52:02.871Z,15.18
2019-04-26T01:54:37.513Z,15.19
2019-04-26T01:57:05.858Z,15.18
2019-04-26T01:59:34.345Z,15.17
2019-04-26T02:02:13.181Z,15.19
2019-04-26T02:04:49.148Z,15.16
2019-04-26T02:07:18.989Z,15.15
2019-04-26T02:09:47.213Z,15.12
2019-04-26T02:12:15.620Z,15.11
2019-04-26T02:14:44.115Z,15.07
2019-04-26T02:17:12.415Z,15.02
2019-04-26T02:19:40.625Z,14.99
2019-04-26T02:22:13.228Z,14.94
2019-04-26T02:24:43.262Z,14.90
2019-04-26T02:27:13.334Z,14.88
2019-04-26T02:29:41.661Z,14.84
2019-04-26T02:32:10.130Z,14.91
2019-04-26T02:34:38.759Z,14.98
2019-04-26T02:37:08.026Z,14.92
2019-04-26T02:39:38.452Z,14.83
2019-04-26T02:42:09.055Z,14.77
2019-04-26T02:44:39.291Z,14.67
2019-04-26T02:47:39.091Z,14.61
2019-04-26T02:50:11.655Z,14.56
2019-04-26T02:53:02.374Z,14.52
2019-04-26T02:56:08.960Z,14.49
2019-04-26T02:58:43.160Z,14.39
2019-04-26T03:01:11.467Z,14.31
2019-04-26T03:03:39.935Z,14.21
2019-04-26T03:06:08.154Z,14.12
2019-04-26T03:08:37.776Z,14.04
2019-04-26T03:11:08.713Z,13.96
2019-04-26T03:13:40.282Z,13.94
2019-04-26T03:16:19.958Z,13.83
2019-04-26T03:18:53.926Z,13.68
2019-04-26T03:21:33.768Z,13.54
2019-04-26T03:24:04.853Z,13.44
2019-04-26T03:26:39.580Z,13.39
2019-04-26T03:29:26.667Z,13.35
2019-04-26T03:32:04.147Z,13.27
2019-04-26T03:34:54.123Z,13.18
2019-04-26T03:37:42.592Z,13.10
2019-04-26T03:40:29.821Z,13.02
2019-04-26T03:43:17.433Z,12.94
2019-04-26T03:45:54.803Z,12.87
2019-04-26T03:48:39.919Z,12.82
2019-04-26T03:51:36.925Z,12.76
2019-04-26T03:54:08.646Z,12.72
2019-04-26T03:56:42.382Z,12.64
2019-04-26T03:59:25.372Z,12.66
2019-04-26T04:02:07.203Z,12.65
2019-04-26T04:04:46.758Z,12.70
2019-04-26T04:07:15.608Z,12.64
2019-04-26T04:09:59.120Z,12.58
2019-04-26T04:12:44.410Z,12.55
2019-04-26T04:15:18.996Z,12.42
2019-04-26T04:17:57.813Z,12.38
2019-04-26T04:20:38.348Z,12.47
2019-04-26T04:23:26.246Z,12.54
2019-04-26T04:25:55.396Z,12.54
2019-04-26T04:29:03.255Z,12.51
2019-04-26T04:31:38.377Z,12.47
2019-04-26T04:34:26.184Z,12.46
2019-04-26T04:36:54.631Z,12.53
2019-04-26T04:39:44.238Z,12.60
2019-04-26T04:42:25.071Z,12.57
2019-04-26T04:45:19.828Z,12.53
2019-04-26T04:48:16.225Z,12.53
2019-04-26T04:51:12.758Z,12.50
2019-04-26T04:53:45.957Z,12.59
2019-04-26T04:56:43.611Z,12.69
2019-04-26T04:59:21.195Z,12.71
2019-04-26T05:02:22.856Z,12.75
2019-04-26T05:05:19.965Z,12.84
2019-04-26T05:08:07.233Z,13.00
2019-04-26T05:10:47.695Z,13.05
2019-04-26T05:13:28.189Z,13.05
2019-04-26T05:16:34.159Z,13.09
2019-04-26T05:19:27.145Z,13.21
2019-04-26T05:22:13.236Z,13.40
2019-04-26T05:25:07.109Z,13.52
2019-04-26T05:28:02.538Z,13.57
2019-04-26T05:30:52.054Z,13.66
2019-04-26T05:33:26.022Z,13.74
2019-04-26T05:36:02.044Z,13.81
2019-04-26T05:38:49.336Z,13.94
2019-04-26T05:41:48.510Z,14.03
2019-04-26T05:44:30.860Z,14.16
2019-04-26T05:47:15.859Z,14.20
2019-04-26T05:49:52.054Z,14.23
2019-04-26T05:52:53.755Z,14.30
2019-04-26T05:55:52.342Z,14.41
2019-04-26T05:58:29.348Z,14.51
2019-04-26T06:01:08.289Z,14.65
2019-04-26T06:04:08.911Z,14.74
2019-04-26T06:06:41.673Z,14.83
2019-04-26T06:09:31.437Z,14.85
2019-04-26T06:12:44.914Z,14.85
2019-04-26T06:15:33.086Z,14.91
2019-04-26T06:18:22.632Z,15.04
2019-04-26T06:20:57.329Z,15.14
2019-04-26T06:23:44.840Z,15.28
2019-04-26T06:26:38.132Z,15.38
2019-04-26T06:29:09.616Z,15.46
2019-04-26T06:31:44.073Z,15.61
2019-04-26T06:34:30.661Z,15.76
2019-04-26T06:37:12.251Z,15.94
2019-04-26T06:40:02.399Z,16.15
2019-04-26T06:43:00.570Z,16.25
2019-04-26T06:45:56.890Z,16.35
2019-04-26T06:48:32.722Z,16.37
2019-04-26T06:51:24.313Z,16.32
2019-04-26T06:54:11.839Z,16.28
2019-04-26T06:56:45.139Z,16.30
2019-04-26T06:59:17.334Z,16.35
2019-04-26T07:01:57.948Z,16.41
2019-04-26T07:04:42.051Z,16.49
2019-04-26T07:07:30.052Z,16.49
2019-04-26T07:10:02.284Z,16.58
2019-04-26T07:12:56.013Z,16.78
2019-04-26T07:15:28.959Z,16.90
2019-04-26T07:18:10.660Z,17.01
2019-04-26T07:20:46.864Z,17.08
2019-04-26T07:23:46.526Z,17.01
2019-04-26T07:26:53.474Z,16.85
2019-04-26T07:29:46.006Z,16.59
2019-04-26T07:32:36.858Z,16.36
2019-04-26T07:35:14.905Z,16.22
2019-04-26T07:38:09.124Z,16.02
2019-04-26T07:41:01.640Z,15.91
2019-04-26T07:43:56.978Z,15.75
2019-04-26T07:46:34.079Z,15.71
2019-04-26T07:49:12.421Z,15.80
2019-04-26T07:52:18.534Z,15.83
2019-04-26T07:55:06.684Z,15.81
2019-04-26T07:57:46.961Z,15.89
2019-04-26T08:00:22.429Z,16.04
2019-04-26T08:02:56.924Z,16.27
2019-04-26T08:05:41.972Z,16.51
2019-04-26T08:08:10.962Z,16.64
2019-04-26T08:10:39.709Z,16.78
2019-04-26T08:13:16.081Z,16.90
2019-04-26T08:16:10.521Z,17.01
2019-04-26T08:19:01.126Z,17.19
2019-04-26T08:21:32.059Z,17.28
2019-04-26T08:24:07.903Z,17.42
2019-04-26T08:26:36.235Z,17.55
2019-04-26T08:29:06.557Z,17.72
2019-04-26T08:31:35.729Z,17.92
2019-04-26T08:34:06.066Z,18.05
2019-04-26T08:36:36.913Z,18.02
2019-04-26T08:39:10.931Z,17.97
2019-04-26T08:41:40.730Z,17.92
2019-04-26T08:44:11.229Z,17.90
2019-04-26T08:46:41.664Z,18.03
2019-04-26T08:49:27.408Z,18.34
2019-04-26T08:51:57.522Z,18.60
2019-04-26T08:54:27.537Z,18.62
2019-04-26T08:57:01.022Z,18.39
2019-04-26T08:59:32.498Z,18.27
2019-04-26T09:02:02.344Z,18.42
2019-04-26T09:04:32.240Z,18.56
2019-04-26T09:07:09.497Z,18.78
2019-04-26T09:09:38.346Z,18.96
2019-04-26T09:12:22.450Z,18.96
2019-04-26T09:14:45.969Z,19.06
2019-04-26T09:17:14.471Z,19.12
2019-04-26T09:19:42.964Z,19.22
2019-04-26T09:22:22.609Z,19.45
2019-04-26T09:25:05.613Z,19.33
2019-04-26T09:27:53.257Z,18.88
2019-04-26T09:30:34.432Z,18.87
2019-04-26T09:33:10.142Z,19.08
2019-04-26T09:35:38.425Z,19.40
2019-04-26T09:38:06.860Z,19.34
2019-04-26T09:40:35.062Z,19.20
2019-04-26T09:43:15.171Z,18.88
2019-04-26T09:45:47.935Z,18.62
2019-04-26T09:48:25.777Z,18.53
2019-04-26T09:50:56.053Z,18.43
2019-04-26T09:53:24.355Z,18.35
2019-04-26T09:55:52.841Z,18.29
2019-04-26T09:58:21.320Z,18.35
2019-04-26T10:00:50.289Z,18.57
2019-04-26T10:03:18.487Z,19.06
2019-04-26T10:05:46.714Z,18.82
2019-04-26T10:08:14.927Z,18.64
2019-04-26T10:10:43.154Z,18.63
2019-04-26T10:13:15.109Z,18.74
2019-04-26T10:15:58.291Z,18.97
2019-04-26T10:18:26.606Z,19.02
2019-04-26T10:20:54.818Z,18.78
2019-04-26T10:23:23.051Z,18.64
2019-04-26T10:25:51.840Z,18.55
2019-04-26T10:28:21.195Z,18.52
2019-04-26T10:30:49.670Z,18.37
2019-04-26T10:33:17.908Z,18.32
2019-04-26T10:35:46.099Z,18.36
2019-04-26T10:38:14.328Z,18.49
2019-04-26T10:40:42.542Z,18.71
2019-04-26T10:43:10.744Z,18.70
2019-04-26T10:45:38.961Z,18.67
2019-04-26T10:48:09.742Z,18.69
2019-04-26T10:50:37.277Z,18.94
2019-04-26T10:53:15.892Z,18.98
2019-04-26T10:55:57.369Z,18.84
2019-04-26T10:58:27.218Z,18.60
2019-04-26T11:00:57.081Z,18.36
2019-04-26T11:03:25.354Z,18.13
2019-04-26T11:05:55.377Z,18.24
2019-04-26T11:08:23.854Z,18.49
2019-04-26T11:10:52.401Z,18.64
2019-04-26T11:13:20.834Z,18.58
2019-04-26T11:15:49.034Z,18.68
2019-04-26T11:18:19.940Z,18.68
2019-04-26T11:20:47.286Z,18.64
2019-04-26T11:23:15.502Z,18.52
2019-04-26T11:25:43.734Z,18.38
2019-04-26T11:28:11.960Z,18.18
2019-04-26T11:30:40.185Z,18.16
2019-04-26T11:33:11.153Z,18.18
2019-04-26T11:35:38.680Z,18.16
2019-04-26T11:38:07.209Z,17.88
2019-04-26T11:40:35.656Z,17.70
2019-04-26T11:43:04.187Z,17.43
2019-04-26T11:45:32.406Z,17.14
2019-04-26T11:48:03.137Z,16.94
2019-04-26T11:50:30.613Z,16.58
2019-04-26T11:52:59.070Z,16.10
2019-04-26T11:55:29.761Z,15.87
2019-04-26T11:57:57.578Z,15.86
2019-04-26T12:00:27.760Z,15.73
2019-04-26T12:02:56.088Z,15.68
2019-04-26T12:05:26.188Z,15.76
2019-04-26T12:08:01.669Z,15.88
2019-04-26T12:10:30.223Z,15.78
2019-04-26T12:13:05.491Z,15.62
2019-04-26T12:15:30.441Z,15.54
2019-04-26T12:17:59.120Z,15.60
2019-04-26T12:20:28.481Z,15.56
2019-04-26T12:22:56.790Z,15.49
2019-04-26T12:25:25.196Z,15.50
2019-04-26T12:27:53.820Z,15.56
2019-04-26T12:30:26.371Z,15.53
2019-04-26T12:32:52.087Z,15.40
2019-04-26T12:35:20.301Z,15.41
2019-04-26T12:37:50.731Z,15.41
2019-04-26T12:40:19.520Z,15.53
2019-04-26T12:42:48.401Z,15.63
2019-04-26T12:45:34.045Z,15.90
2019-04-26T12:48:04.189Z,16.15
2019-04-26T12:50:36.422Z,16.28
2019-04-26T12:53:02.482Z,16.37
2019-04-26T12:55:30.856Z,16.51
2019-04-26T12:57:59.082Z,16.69
2019-04-26T13:00:32.908Z,16.86
2019-04-26T13:03:00.146Z,17.12
2019-04-26T13:05:28.562Z,17.29
2019-04-26T13:07:57.053Z,17.57
2019-04-26T13:10:44.919Z,17.68
2019-04-26T13:13:14.790Z,17.70
2019-04-26T13:15:57.239Z,17.69
2019-04-26T13:18:25.525Z,17.78
2019-04-26T13:20:53.725Z,17.56
2019-04-26T13:23:25.398Z,17.37
2019-04-26T13:25:55.530Z,17.14
2019-04-26T13:28:22.285Z,17.08
2019-04-26T13:30:50.732Z,17.09
2019-04-26T13:33:19.231Z,17.09
2019-04-26T13:36:02.317Z,16.87
2019-04-26T13:38:17.715Z,16.78
2019-04-26T13:40:45.923Z,16.86
2019-04-26T13:43:14.132Z,16.95
2019-04-26T13:45:43.970Z,17.08
2019-04-26T13:48:29.690Z,17.23
2019-04-26T13:51:15.767Z,17.19
2019-04-26T13:53:43.971Z,17.06
2019-04-26T13:56:12.416Z,16.99
2019-04-26T13:58:40.909Z,16.80
2019-04-26T14:01:09.979Z,16.58
2019-04-26T14:03:38.395Z,16.62
2019-04-26T14:06:06.852Z,16.89
2019-04-26T14:08:35.341Z,16.96
2019-04-26T14:11:03.714Z,17.11
2019-04-26T14:13:32.304Z,17.08
2019-04-26T14:16:00.778Z,17.02
2019-04-26T14:18:29.427Z,16.86
2019-04-26T14:20:59.061Z,16.57
2019-04-26T14:23:29.408Z,16.31
2019-04-26T14:26:01.106Z,16.16
2019-04-26T14:28:29.366Z,16.01
2019-04-26T14:30:57.580Z,15.96
2019-04-26T14:33:27.137Z,15.83
2019-04-26T14:35:55.827Z,15.88
2019-04-26T14:38:28.066Z,16.20
2019-04-26T14:41:03.835Z,16.68
2019-04-26T14:43:24.312Z,16.77
2019-04-26T14:45:56.168Z,16.67
2019-04-26T14:48:35.310Z,16.41
2019-04-26T14:50:53.316Z,16.15
2019-04-26T14:53:21.591Z,15.94
2019-04-26T14:55:51.295Z,15.82
2019-04-26T14:58:23.862Z,15.76
2019-04-26T15:01:00.403Z,15.76
2019-04-26T15:03:45.404Z,15.73
2019-04-26T15:06:20.394Z,15.64
2019-04-26T15:08:48.952Z,15.47
2019-04-26T15:11:17.547Z,15.47
2019-04-26T15:13:46.036Z,15.50
2019-04-26T15:16:14.510Z,15.58
2019-04-26T15:18:42.995Z,15.68
2019-04-26T15:21:12.874Z,15.76
2019-04-26T15:23:41.143Z,15.69
2019-04-26T15:26:09.459Z,15.49
2019-04-26T15:28:37.951Z,15.31
2019-04-26T15:31:06.436Z,15.03
2019-04-26T15:33:36.027Z,14.88
2019-04-26T15:36:06.507Z,14.81
2019-04-26T15:38:41.066Z,14.68
2019-04-26T15:41:11.550Z,14.62
2019-04-26T15:43:49.938Z,14.55
2019-04-26T15:46:20.748Z,14.53
2019-04-26T15:49:00.040Z,14.46
2019-04-26T15:51:30.219Z,14.45
2019-04-26T15:53:58.622Z,14.45
2019-04-26T15:56:27.073Z,14.42
2019-04-26T15:58:55.283Z,14.40
2019-04-26T16:01:23.546Z,14.38
2019-04-26T16:03:53.051Z,14.40
2019-04-26T16:06:21.528Z,14.42
2019-04-26T16:08:50.002Z,14.31
2019-04-26T16:11:18.490Z,14.28
2019-04-26T16:13:52.196Z,14.26
2019-04-26T16:16:20.529Z,14.19
2019-04-26T16:18:49.986Z,14.19
2019-04-26T16:21:18.077Z,14.22
2019-04-26T16:23:51.481Z,14.33
2019-04-26T16:26:17.058Z,14.44
2019-04-26T16:28:46.904Z,14.47
2019-04-26T16:31:16.762Z,14.34
2019-04-26T16:33:46.716Z,14.35
2019-04-26T16:36:15.080Z,14.30
2019-04-26T16:38:43.287Z,14.29
2019-04-26T16:41:11.537Z,14.23
2019-04-26T16:43:48.515Z,14.14
2019-04-26T16:46:12.574Z,14.05
2019-04-26T16:48:40.014Z,13.97
2019-04-26T16:51:08.938Z,13.96
2019-04-26T16:53:52.058Z,13.95
2019-04-26T16:56:07.528Z,13.90
2019-04-26T16:58:38.373Z,13.85
2019-04-26T17:01:10.159Z,13.81
2019-04-26T17:03:38.310Z,13.79
2019-04-26T17:06:10.832Z,13.78
2019-04-26T17:08:42.911Z,13.72
2019-04-26T17:11:06.097Z,13.68
2019-04-26T17:13:36.243Z,13.66
2019-04-26T17:16:04.593Z,13.58
2019-04-26T17:18:32.814Z,13.54
2019-04-26T17:21:02.580Z,13.52
2019-04-26T17:23:41.383Z,13.45
2019-04-26T17:26:16.832Z,13.47
2019-04-26T17:28:45.445Z,13.42
2019-04-26T17:31:13.675Z,13.39
2019-04-26T17:33:41.907Z,13.37
2019-04-26T17:36:11.459Z,13.32
2019-04-26T17:38:42.070Z,13.35
2019-04-26T17:41:12.670Z,13.32
2019-04-26T17:43:46.953Z,13.27
2019-04-26T17:46:14.258Z,13.22
2019-04-26T17:48:40.834Z,13.17
2019-04-26T17:51:18.021Z,13.16
2019-04-26T17:53:40.109Z,13.17
2019-04-26T17:56:08.576Z,13.16
2019-04-26T17:58:49.816Z,13.08
2019-04-26T18:01:06.980Z,13.05
2019-04-26T18:03:35.397Z,13.00
2019-04-26T18:06:03.926Z,13.00
2019-04-26T18:08:40.771Z,12.96
2019-04-26T18:11:02.066Z,12.98
2019-04-26T18:13:31.903Z,12.96
2019-04-26T18:16:00.291Z,12.89
2019-04-26T18:18:36.197Z,12.84
2019-04-26T18:21:22.895Z,12.81
2019-04-26T18:23:54.690Z,12.74
2019-04-26T18:26:22.902Z,12.73
2019-04-26T18:28:54.954Z,12.70
2019-04-26T18:31:28.479Z,12.65
2019-04-26T18:33:54.788Z,12.58
2019-04-26T18:36:23.491Z,12.58
2019-04-26T18:38:53.663Z,12.58
2019-04-26T18:41:23.077Z,12.58
2019-04-26T18:43:54.092Z,12.56
2019-04-26T18:46:24.136Z,12.55
2019-04-26T18:48:53.506Z,12.54
2019-04-26T18:51:23.634Z,12.49
2019-04-26T18:53:59.707Z,12.51
2019-04-26T18:56:27.921Z,12.47
2019-04-26T18:58:56.299Z,12.45
2019-04-26T19:01:24.793Z,12.42
2019-04-26T19:03:54.178Z,12.37
2019-04-26T19:06:29.696Z,12.37
2019-04-26T19:08:52.930Z,12.37
2019-04-26T19:11:21.814Z,12.38
2019-04-26T19:14:11.327Z,12.36
2019-04-26T19:16:42.255Z,12.32
2019-04-26T19:19:15.386Z,12.31
2019-04-26T19:21:55.704Z,12.30
2019-04-26T19:24:24.117Z,12.21
2019-04-26T19:26:52.619Z,12.14
2019-04-26T19:29:27.046Z,12.12
2019-04-26T19:31:52.254Z,12.13
2019-04-26T19:34:21.912Z,12.11
2019-04-26T19:36:52.365Z,12.05
2019-04-26T19:39:31.660Z,12.02
2019-04-26T19:41:52.059Z,11.97
2019-04-26T19:44:23.927Z,11.92
2019-04-26T19:47:05.520Z,11.87
2019-04-26T19:49:49.023Z,11.88
2019-04-26T19:52:22.221Z,11.88
2019-04-26T19:54:58.038Z,11.79
2019-04-26T19:57:39.108Z,11.82
2019-04-26T20:00:08.100Z,11.82
2019-04-26T20:02:39.235Z,11.79
2019-04-26T20:05:07.839Z,11.78
2019-04-26T20:07:36.424Z,11.75
2019-04-26T20:10:05.651Z,11.70
2019-04-26T20:12:37.925Z,11.65
2019-04-26T20:15:05.938Z,11.62
2019-04-26T20:17:34.427Z,11.62
2019-04-26T20:20:02.925Z,11.63
2019-04-26T20:22:32.165Z,11.58
2019-04-26T20:25:00.280Z,11.59
2019-04-26T20:27:28.522Z,11.59
2019-04-26T20:29:56.732Z,11.54
2019-04-26T20:32:26.576Z,11.50
2019-04-26T20:35:05.347Z,11.50
2019-04-26T20:37:33.555Z,11.55
2019-04-26T20:40:16.280Z,11.57
2019-04-26T20:42:31.704Z,11.54
2019-04-26T20:44:59.912Z,11.55
2019-04-26T20:47:28.136Z,11.53
2019-04-26T20:50:01.247Z,11.50
2019-04-26T20:52:26.342Z,11.51
2019-04-26T20:54:54.563Z,11.57
2019-04-26T20:57:26.627Z,11.61
2019-04-26T21:00:01.628Z,11.78
2019-04-26T21:02:24.739Z,11.68
2019-04-26T21:04:52.598Z,11.58
2019-04-26T21:07:21.874Z,11.50
2019-04-26T21:09:50.115Z,11.48
2019-04-26T21:12:18.583Z,11.50
2019-04-26T21:14:46.795Z,11.52
2019-04-26T21:17:15.141Z,11.53
2019-04-26T21:19:43.432Z,11.52
2019-04-26T21:22:11.641Z,11.43
2019-04-26T21:24:41.504Z,11.37
2019-04-26T21:27:29.834Z,11.36
2019-04-26T21:30:06.437Z,11.37
2019-04-26T21:32:37.667Z,11.37
2019-04-26T21:35:07.855Z,11.38
2019-04-26T21:37:53.985Z,11.43
2019-04-26T21:40:26.162Z,11.44
2019-04-26T21:42:59.243Z,11.44
2019-04-26T21:45:28.427Z,11.40
2019-04-26T21:47:54.381Z,11.42
2019-04-26T21:50:22.527Z,11.43
2019-04-26T21:52:50.739Z,11.39
2019-04-26T21:55:18.960Z,11.35
2019-04-26T21:57:47.411Z,11.36
2019-04-26T22:00:33.562Z,11.36
2019-04-26T22:03:03.670Z,11.34
2019-04-26T22:05:31.795Z,11.28
2019-04-26T22:08:00.023Z,11.27
2019-04-26T22:10:29.956Z,11.26
2019-04-26T22:13:01.488Z,11.26
2019-04-26T22:15:35.742Z,11.22
2019-04-26T22:18:21.574Z,11.23
2019-04-26T22:20:54.573Z,11.24
2019-04-26T22:23:33.689Z,11.26
2019-04-26T22:26:05.034Z,11.23
2019-04-26T22:28:35.933Z,11.18
2019-04-26T22:31:06.887Z,11.19
2019-04-26T22:33:34.102Z,11.15
2019-04-26T22:36:03.978Z,11.10
2019-04-26T22:38:33.974Z,11.04
2019-04-26T22:41:03.039Z,11.01
2019-04-26T22:43:35.428Z,10.98
2019-04-26T22:46:08.030Z,10.96
2019-04-26T22:48:37.868Z,10.92
2019-04-26T22:51:06.154Z,10.86
2019-04-26T22:53:34.362Z,10.83
2019-04-26T22:56:04.601Z,10.81
2019-04-26T22:58:33.784Z,10.79
2019-04-26T23:01:03.576Z,10.77
2019-04-26T23:03:31.924Z,10.79
2019-04-26T23:06:00.131Z,10.78
2019-04-26T23:08:30.732Z,10.76
2019-04-26T23:11:02.382Z,10.72
2019-04-26T23:13:30.612Z,10.71
2019-04-26T23:16:04.919Z,10.73
2019-04-26T23:18:33.483Z,10.71
2019-04-26T23:21:07.748Z,10.71
2019-04-26T23:23:37.198Z,10.70
2019-04-26T23:26:07.627Z,10.65
2019-04-26T23:28:37.042Z,10.65
2019-04-26T23:31:08.097Z,10.65
2019-04-26T23:33:35.266Z,10.67
2019-04-26T23:36:03.500Z,10.64
2019-04-26T23:38:36.164Z,10.65
2019-04-26T23:41:06.993Z,10.63
2019-04-26T23:43:31.578Z,10.61
2019-04-26T23:45:59.798Z,10.57
2019-04-26T23:48:28.012Z,10.53
2019-04-26T23:50:59.872Z,10.55
2019-04-26T23:53:26.161Z,10.54
2019-04-26T23:55:54.367Z,10.59
2019-04-26T23:58:23.053Z,10.59
